Cuauhtémoc — XCBF — position and weather

sailwx.info

Track history (hours):
 
Tides and Currents Weather Stations Pressure Air Temp Water Temp Dewpoint Dewpoint Depression Visibility Wind Speed Wind Dir Waves Ship Positions

Cuauhtémoc

Last reported at 2017-Apr-01 06:59 UTC. Time now 2017-Apr-26 15:39 UTC.
Position N 38°28' W 025°57'.
Warning: this ship's position is 25 days out of date.

Length 90 m; draft 5.4 m.

MMSI: 345186001.

Date/timePositionNaut miles runAvg speedWind from/ knotsBaromVisibWave heightAir tempDewpointWater temp
2017-Apr-01 06:59N 38°28' W 025°57'5 9.6
2017-Apr-01 06:29N 38°28' W 026°03'6 9.9
2017-Apr-01 05:55N 38°26' W 026°10'4 9.7
2017-Apr-01 05:30N 38°26' W 026°15'87 7.6
2017-Mar-31 18:07N 38°05' W 028°02'1 7.1
2017-Mar-31 17:59N 38°05' W 028°03'9 8.0
2017-Mar-31 16:56N 38°03' W 028°14'3 8.1
2017-Mar-31 16:30N 38°03' W 028°18'4 7.7
2017-Mar-31 16:00N 38°02' W 028°23'4 7.7
2017-Mar-31 15:30N 38°01' W 028°27'4 8.2
2017-Mar-31 15:00N 37°60' W 028°33'4 8.7
2017-Mar-31 14:30N 37°59' W 028°38'9 8.8
2017-Mar-31 13:30N 37°57' W 028°49'4 8.8
2017-Mar-31 13:00N 37°56' W 028°54'4 8.8
2017-Mar-31 12:30N 37°55' W 028°60'4 8.8
2017-Mar-31 12:00N 37°54' W 029°05'4 8.2
2017-Mar-31 11:31N 37°52' W 029°10'4 7.3
2017-Mar-31 10:59N 37°51' W 029°14'9 6.7
2017-Mar-31 09:42N 37°47' W 029°24'1 5.2
2017-Mar-31 09:30N 37°47' W 029°25'2 3.3
2017-Mar-31 09:00N 37°47' W 029°27'6 8.6
2017-Mar-31 08:21N 37°48' W 029°34'  
Track history (hours):
 
Tides and Currents Weather Stations Pressure Air Temp Water Temp Dewpoint Dewpoint Depression Visibility Wind Speed Wind Dir Waves Ship Positions

Cuauhtémoc

Last reported at 2017-Apr-01 06:59 UTC. Time now 2017-Apr-26 15:39 UTC.
Position N 38°28' W 025°57'.
Warning: this ship's position is 25 days out of date.

Length 90 m; draft 5.4 m.

MMSI: 345186001.

Date/timePositionNaut miles runAvg speedWind from/ knotsBaromVisibWave heightAir tempDewpointWater temp
2017-Apr-01 06:59N 38°28' W 025°57'5 9.6
2017-Apr-01 06:29N 38°28' W 026°03'6 9.9
2017-Apr-01 05:55N 38°26' W 026°10'4 9.7
2017-Apr-01 05:30N 38°26' W 026°15'87 7.6
2017-Mar-31 18:07N 38°05' W 028°02'1 7.1
2017-Mar-31 17:59N 38°05' W 028°03'9 8.0
2017-Mar-31 16:56N 38°03' W 028°14'3 8.1
2017-Mar-31 16:30N 38°03' W 028°18'4 7.7
2017-Mar-31 16:00N 38°02' W 028°23'4 7.7
2017-Mar-31 15:30N 38°01' W 028°27'4 8.2
2017-Mar-31 15:00N 37°60' W 028°33'4 8.7
2017-Mar-31 14:30N 37°59' W 028°38'9 8.8
2017-Mar-31 13:30N 37°57' W 028°49'4 8.8
2017-Mar-31 13:00N 37°56' W 028°54'4 8.8
2017-Mar-31 12:30N 37°55' W 028°60'4 8.8
2017-Mar-31 12:00N 37°54' W 029°05'4 8.2
2017-Mar-31 11:31N 37°52' W 029°10'4 7.3
2017-Mar-31 10:59N 37°51' W 029°14'9 6.7
2017-Mar-31 09:42N 37°47' W 029°24'1 5.2
2017-Mar-31 09:30N 37°47' W 029°25'2 3.3
2017-Mar-31 09:00N 37°47' W 029°27'6 8.6
2017-Mar-31 08:21N 37°48' W 029°34'  

Dump ship's entire track history